Elmira, Illinois
Current Conditions -  °F | °C
As of 4:15 PM on Monday 20 Oct 2014 (Local Time) from KC75 Reporting Station
Scattered Clouds Scattered Clouds  
Wind Chill: 65°   Ceiling: Unl
Heat Index: 65°   Visibility: 10mi
Dew Point: 42°   Wind: 14mph
Humidity: 43%   Direction: 330°NNW
Pressure: 29.91"   Gusts: 23mph
Location:  41.1043°N, 89.8577°W
Report Text: KC75 202115Z AUTO 33012G20KT 10SM SCT055 19/06 A2991 RMK AO2 T01850057
Loading
Personal Weather Stations






























Interactive Weather Map
Tropical Storm Tracking
New forecast layout! Learn more

10-Day Weather Forecast

Advertisements
Track Severe Weather on mobile